createdAt,value
2023-01-23T00:02:10.000Z,102034.98
2023-01-23T00:04:41.337Z,102037.30
2023-01-23T00:07:12.708Z,102043.31
2023-01-23T00:09:44.311Z,102045.16
2023-01-23T00:12:15.932Z,102048.60
2023-01-23T00:14:47.611Z,102053.80
2023-01-23T00:17:19.069Z,102053.55
2023-01-23T00:19:50.433Z,102053.85
2023-01-23T00:22:21.937Z,102056.89
2023-01-23T00:24:53.413Z,102062.87
2023-01-23T00:27:25.108Z,102064.45
2023-01-23T00:29:56.470Z,102063.09
2023-01-23T00:32:28.168Z,102065.26
2023-01-23T00:35:00.805Z,102071.66
2023-01-23T00:37:32.551Z,102068.16
2023-01-23T00:40:04.194Z,102067.46
2023-01-23T00:42:35.347Z,102067.54
2023-01-23T00:45:07.628Z,102069.86
2023-01-23T00:47:39.066Z,102077.92
2023-01-23T00:50:12.139Z,102080.84
2023-01-23T00:52:43.588Z,102082.56
2023-01-23T00:55:14.931Z,102086.48
2023-01-23T00:57:46.358Z,102084.23
2023-01-23T01:00:18.885Z,102084.75
2023-01-23T01:02:50.950Z,102087.94
2023-01-23T01:05:22.689Z,102089.54
2023-01-23T01:07:54.166Z,102095.58
2023-01-23T01:10:29.654Z,102099.36
2023-01-23T01:13:02.210Z,102102.14
2023-01-23T01:15:33.764Z,102101.20
2023-01-23T01:18:05.474Z,102095.44
2023-01-23T01:20:36.861Z,102094.11
2023-01-23T01:23:08.067Z,102094.06
2023-01-23T01:25:39.433Z,102094.20
2023-01-23T01:28:11.039Z,102093.81
2023-01-23T01:30:42.562Z,102092.86
2023-01-23T01:33:13.848Z,102095.99
2023-01-23T01:35:45.172Z,102100.94
2023-01-23T01:38:16.545Z,102110.66
2023-01-23T01:40:48.011Z,102109.55
2023-01-23T01:43:21.231Z,102105.04
2023-01-23T01:46:24.529Z,102104.23
2023-01-23T01:49:06.167Z,102101.86
2023-01-23T01:51:39.892Z,102102.23
2023-01-23T01:54:12.635Z,102103.98
2023-01-23T01:56:45.896Z,102103.71
2023-01-23T01:59:17.213Z,102103.60
2023-01-23T02:01:48.961Z,102101.64
2023-01-23T02:04:20.466Z,102103.04
2023-01-23T02:06:51.901Z,102103.70
2023-01-23T02:09:24.740Z,102101.21
2023-01-23T02:11:56.071Z,102105.61
2023-01-23T02:14:27.544Z,102104.09
2023-01-23T02:17:01.184Z,102104.67
2023-01-23T02:19:36.315Z,102107.38
2023-01-23T02:22:10.203Z,102103.04
2023-01-23T02:24:42.894Z,102102.94
2023-01-23T02:27:14.338Z,102100.69
2023-01-23T02:29:48.526Z,102105.02
2023-01-23T02:32:24.529Z,102097.75
2023-01-23T02:34:56.393Z,102097.85
2023-01-23T02:37:29.902Z,102100.80
2023-01-23T02:40:02.959Z,102092.11
2023-01-23T02:42:34.390Z,102097.87
2023-01-23T02:45:06.454Z,102099.95
2023-01-23T02:47:38.055Z,102103.67
2023-01-23T02:50:10.274Z,102101.26
2023-01-23T02:52:41.682Z,102100.41
2023-01-23T02:55:13.038Z,102097.80
2023-01-23T02:57:45.293Z,102103.67
2023-01-23T03:00:17.395Z,102099.58
2023-01-23T03:02:49.582Z,102106.94
2023-01-23T03:05:20.999Z,102101.87
2023-01-23T03:07:52.351Z,102099.66
2023-01-23T03:10:23.854Z,102104.06
2023-01-23T03:12:58.417Z,102107.08
2023-01-23T03:15:30.943Z,102107.95
2023-01-23T03:18:02.245Z,102113.45
2023-01-23T03:20:34.831Z,102118.64
2023-01-23T03:23:06.358Z,102115.96
2023-01-23T03:25:37.824Z,102118.98
2023-01-23T03:28:29.075Z,102122.23
2023-01-23T03:31:00.457Z,102127.67
2023-01-23T03:33:32.092Z,102130.41
2023-01-23T03:36:03.844Z,102137.27
2023-01-23T03:38:35.206Z,102140.06
2023-01-23T03:41:23.810Z,102138.22
2023-01-23T03:43:55.297Z,102135.61
2023-01-23T03:46:26.954Z,102136.35
2023-01-23T03:48:58.628Z,102138.61
2023-01-23T03:51:30.236Z,102137.36
2023-01-23T03:54:01.675Z,102131.80
2023-01-23T03:56:33.105Z,102130.75
2023-01-23T03:59:04.709Z,102131.46
2023-01-23T04:01:36.664Z,102134.30
2023-01-23T04:04:31.266Z,102136.33
2023-01-23T04:07:06.844Z,102146.89
2023-01-23T04:09:38.216Z,102152.73
2023-01-23T04:12:09.846Z,102159.13
2023-01-23T04:14:41.939Z,102154.19
2023-01-23T04:17:17.064Z,102160.30
2023-01-23T04:19:55.613Z,102157.76
2023-01-23T04:22:30.335Z,102163.40
2023-01-23T04:25:11.676Z,102170.79
2023-01-23T04:27:43.579Z,102169.33
2023-01-23T04:30:15.407Z,102168.73
2023-01-23T04:32:46.873Z,102174.33
2023-01-23T04:35:18.135Z,102179.79
2023-01-23T04:37:49.305Z,102177.61
2023-01-23T04:40:21.255Z,102184.66
2023-01-23T04:42:53.225Z,102191.14
2023-01-23T04:45:24.461Z,102192.85
2023-01-23T04:47:55.602Z,102193.61
2023-01-23T04:50:26.992Z,102190.91
2023-01-23T04:52:59.157Z,102191.24
2023-01-23T04:55:30.730Z,102196.55
2023-01-23T04:58:02.323Z,102199.23
2023-01-23T05:00:33.675Z,102204.44
2023-01-23T05:03:05.268Z,102209.52
2023-01-23T05:05:36.848Z,102211.01
2023-01-23T05:08:08.738Z,102208.60
2023-01-23T05:10:39.887Z,102213.80
2023-01-23T05:13:11.180Z,102218.02
2023-01-23T05:15:42.766Z,102229.45
2023-01-23T05:18:14.472Z,102232.23
2023-01-23T05:20:46.003Z,102230.47
2023-01-23T05:23:17.216Z,102229.41
2023-01-23T05:25:48.660Z,102232.54
2023-01-23T05:28:20.309Z,102239.39
2023-01-23T05:30:52.065Z,102246.14
2023-01-23T05:33:23.599Z,102248.27
2023-01-23T05:35:54.818Z,102244.93
2023-01-23T05:38:26.136Z,102248.28
2023-01-23T05:40:57.679Z,102245.52
2023-01-23T05:43:29.397Z,102249.70
2023-01-23T05:46:02.229Z,102256.44
2023-01-23T05:48:33.838Z,102261.80
2023-01-23T05:51:05.584Z,102265.35
2023-01-23T05:53:37.470Z,102263.60
2023-01-23T05:56:09.992Z,102268.31
2023-01-23T05:58:41.686Z,102268.53
2023-01-23T06:01:13.070Z,102276.75
2023-01-23T06:03:45.335Z,102282.55
2023-01-23T06:06:16.754Z,102287.87
2023-01-23T06:08:48.398Z,102290.16
2023-01-23T06:11:20.099Z,102288.42
2023-01-23T06:13:52.226Z,102287.21
2023-01-23T06:16:23.653Z,102290.84
2023-01-23T06:18:56.209Z,102294.56
2023-01-23T06:21:27.742Z,102294.70
2023-01-23T06:23:59.824Z,102305.24
2023-01-23T06:26:31.162Z,102303.11
2023-01-23T06:29:02.516Z,102306.52
2023-01-23T06:31:34.104Z,102314.63
2023-01-23T06:34:06.017Z,102314.41
2023-01-23T06:36:37.483Z,102314.39
2023-01-23T06:39:09.075Z,102316.58
2023-01-23T06:41:40.381Z,102321.08
2023-01-23T06:44:12.148Z,102327.92
2023-01-23T06:46:43.701Z,102335.30
2023-01-23T06:49:15.471Z,102338.88
2023-01-23T06:51:46.876Z,102341.75
2023-01-23T06:54:18.772Z,102346.00
2023-01-23T06:56:50.596Z,102351.53
2023-01-23T06:59:22.234Z,102359.06
2023-01-23T07:01:53.985Z,102360.63
2023-01-23T07:04:25.684Z,102364.83
2023-01-23T07:06:56.958Z,102363.35
2023-01-23T07:09:28.754Z,102368.33
2023-01-23T07:12:00.418Z,102369.16
2023-01-23T07:14:32.338Z,102368.43
2023-01-23T07:17:03.794Z,102365.85
2023-01-23T07:19:35.323Z,102369.48
2023-01-23T07:22:06.859Z,102375.77
2023-01-23T07:24:38.636Z,102375.94
2023-01-23T07:27:10.023Z,102375.71
2023-01-23T07:29:41.366Z,102373.94
2023-01-23T07:32:12.636Z,102371.45
2023-01-23T07:34:44.263Z,102374.80
2023-01-23T07:37:15.699Z,102374.03
2023-01-23T07:39:47.426Z,102373.77
2023-01-23T07:42:18.761Z,102376.78
2023-01-23T07:44:50.181Z,102382.05
2023-01-23T07:47:21.496Z,102381.89
2023-01-23T07:49:53.178Z,102382.44
2023-01-23T07:52:25.608Z,102381.31
2023-01-23T07:54:57.068Z,102386.09
2023-01-23T07:57:28.360Z,102383.21
2023-01-23T08:00:00.020Z,102391.02
2023-01-23T08:02:31.733Z,102383.38
2023-01-23T08:05:03.591Z,102383.29
2023-01-23T08:07:34.965Z,102386.86
2023-01-23T08:10:07.352Z,102389.14
2023-01-23T08:12:38.860Z,102388.38
2023-01-23T08:15:13.227Z,102393.90
2023-01-23T08:17:45.013Z,102403.36
2023-01-23T08:20:18.785Z,102409.41
2023-01-23T08:22:50.402Z,102412.10
2023-01-23T08:25:21.823Z,102416.91
2023-01-23T08:27:53.306Z,102412.63
2023-01-23T08:30:25.296Z,102415.27
2023-01-23T08:32:57.564Z,102416.19
2023-01-23T08:35:28.906Z,102424.31
2023-01-23T08:38:00.623Z,102420.63
2023-01-23T08:40:32.118Z,102423.61
2023-01-23T08:43:03.596Z,102424.73
2023-01-23T08:45:34.857Z,102421.94
2023-01-23T08:48:06.379Z,102424.27
2023-01-23T08:50:38.114Z,102420.58
2023-01-23T08:53:09.776Z,102419.17
2023-01-23T08:55:42.378Z,102414.89
2023-01-23T08:58:14.298Z,102415.39
2023-01-23T09:00:48.367Z,102412.30
2023-01-23T09:03:20.019Z,102406.37
2023-01-23T09:05:51.578Z,102409.05
2023-01-23T09:08:23.246Z,102409.32
2023-01-23T09:10:55.267Z,102407.39
2023-01-23T09:13:26.756Z,102400.86
2023-01-23T09:15:58.341Z,102399.58
2023-01-23T09:18:29.978Z,102392.48
2023-01-23T09:21:02.328Z,102395.48
2023-01-23T09:23:34.557Z,102396.46
2023-01-23T09:26:06.512Z,102396.23
2023-01-23T09:28:38.912Z,102395.46
2023-01-23T09:31:11.542Z,102393.70
2023-01-23T09:33:43.312Z,102388.67
2023-01-23T09:36:14.663Z,102390.52
2023-01-23T09:38:46.027Z,102384.53
2023-01-23T09:41:18.941Z,102378.41
2023-01-23T09:43:55.265Z,102380.32
2023-01-23T09:46:28.085Z,102383.30
2023-01-23T09:49:00.936Z,102383.70
2023-01-23T09:51:35.872Z,102379.60
2023-01-23T09:54:08.894Z,102385.85
2023-01-23T09:56:42.456Z,102379.35
2023-01-23T09:59:15.342Z,102385.21
2023-01-23T10:01:46.784Z,102386.91
2023-01-23T10:04:18.250Z,102390.89
2023-01-23T10:07:06.986Z,102388.83
2023-01-23T10:09:41.876Z,102382.96
2023-01-23T10:12:15.249Z,102386.15
2023-01-23T10:15:01.785Z,102380.42
2023-01-23T10:17:35.311Z,102381.89
2023-01-23T10:20:25.371Z,102372.55
2023-01-23T10:22:59.315Z,102365.19
2023-01-23T10:25:32.877Z,102364.48
2023-01-23T10:28:11.482Z,102359.73
2023-01-23T10:30:42.930Z,102358.64
2023-01-23T10:33:15.283Z,102362.00
2023-01-23T10:35:50.820Z,102359.42
2023-01-23T10:38:32.506Z,102361.39
2023-01-23T10:41:22.380Z,102365.48
2023-01-23T10:43:55.148Z,102363.58
2023-01-23T10:46:47.682Z,102360.73
2023-01-23T10:49:30.930Z,102361.38
2023-01-23T10:52:01.765Z,102362.59
2023-01-23T10:54:33.562Z,102358.31
2023-01-23T10:57:05.396Z,102353.36
2023-01-23T10:59:37.334Z,102346.76
2023-01-23T11:02:28.168Z,102344.05
2023-01-23T11:05:00.442Z,102347.33
2023-01-23T11:07:32.062Z,102344.38
2023-01-23T11:10:04.632Z,102344.96
2023-01-23T11:12:36.109Z,102337.30
2023-01-23T11:15:23.731Z,102341.81
2023-01-23T11:17:55.156Z,102338.30
2023-01-23T11:20:28.384Z,102344.80
2023-01-23T11:23:06.451Z,102337.98
2023-01-23T11:25:39.214Z,102336.25
2023-01-23T11:28:23.774Z,102345.01
2023-01-23T11:31:11.538Z,102349.23
2023-01-23T11:33:47.875Z,102348.92
2023-01-23T11:36:33.647Z,102345.09
2023-01-23T11:39:06.107Z,102346.65
2023-01-23T11:41:36.974Z,102348.38
2023-01-23T11:44:10.034Z,102343.73
2023-01-23T11:47:07.797Z,102345.71
2023-01-23T11:49:45.729Z,102347.38
2023-01-23T11:52:22.611Z,102351.24
2023-01-23T11:54:57.906Z,102356.80
2023-01-23T11:57:30.931Z,102358.25
2023-01-23T12:00:08.411Z,102361.55
2023-01-23T12:02:46.520Z,102357.77
2023-01-23T12:05:37.062Z,102362.69
2023-01-23T12:08:11.484Z,102362.75
2023-01-23T12:10:46.571Z,102366.09
2023-01-23T12:13:20.294Z,102365.66
2023-01-23T12:16:00.153Z,102370.03
2023-01-23T12:18:34.941Z,102366.96
2023-01-23T12:21:07.218Z,102371.26
2023-01-23T12:23:42.647Z,102369.39
2023-01-23T12:26:15.114Z,102373.54
2023-01-23T12:28:51.520Z,102374.17
2023-01-23T12:31:27.561Z,102374.48
2023-01-23T12:34:21.827Z,102375.36
2023-01-23T12:37:11.836Z,102378.80
2023-01-23T12:39:49.588Z,102379.69
2023-01-23T12:42:21.807Z,102382.27
2023-01-23T12:44:57.449Z,102384.60
2023-01-23T12:47:29.067Z,102387.45
2023-01-23T12:50:00.258Z,102388.11
2023-01-23T12:52:31.800Z,102387.24
2023-01-23T12:55:04.343Z,102386.38
2023-01-23T13:00:39.757Z,102388.38
2023-01-23T13:03:15.378Z,102389.25
2023-01-23T13:05:48.624Z,102390.17
2023-01-23T13:08:21.546Z,102391.30
2023-01-23T13:11:15.768Z,102385.96
2023-01-23T13:13:47.012Z,102384.77
2023-01-23T13:16:18.364Z,102382.58
2023-01-23T13:19:16.111Z,102380.02
2023-01-23T13:22:04.808Z,102382.39
2023-01-23T13:25:01.589Z,102385.76
2023-01-23T13:27:42.887Z,102380.67
2023-01-23T13:30:33.121Z,102381.69
2023-01-23T13:33:26.887Z,102383.04
2023-01-23T13:35:59.834Z,102389.15
2023-01-23T13:38:40.704Z,102393.54
2023-01-23T13:41:27.659Z,102393.40
2023-01-23T13:44:00.111Z,102395.80
2023-01-23T13:46:32.297Z,102399.20
2023-01-23T14:22:16.604Z,102421.00
2023-01-23T14:24:48.532Z,102424.04
2023-01-23T14:27:29.530Z,102429.59
2023-01-23T14:30:02.168Z,102434.05
2023-01-23T14:32:34.809Z,102436.19
2023-01-23T14:35:06.512Z,102434.59
2023-01-23T14:37:37.415Z,102436.99
2023-01-23T14:40:20.854Z,102439.04
2023-01-23T14:42:58.327Z,102439.55
2023-01-23T14:45:33.206Z,102438.30
2023-01-23T14:48:06.975Z,102439.81
2023-01-23T14:50:39.351Z,102438.55
2023-01-23T14:53:13.651Z,102435.26
2023-01-23T14:55:46.528Z,102444.38
2023-01-23T14:58:22.459Z,102443.55
2023-01-23T15:00:53.788Z,102447.77
2023-01-23T15:03:37.631Z,102441.33
2023-01-23T15:06:10.171Z,102439.52
2023-01-23T15:08:41.009Z,102433.20
2023-01-23T15:11:13.620Z,102429.09
2023-01-23T15:13:50.464Z,102428.09
2023-01-23T15:16:22.004Z,102425.55
2023-01-23T15:18:57.341Z,102425.30
2023-01-23T15:21:29.877Z,102432.23
2023-01-23T15:24:19.384Z,102439.20
2023-01-23T15:27:00.498Z,102443.73
2023-01-23T15:29:31.839Z,102439.83
2023-01-23T15:32:02.995Z,102442.05
2023-01-23T15:34:34.515Z,102442.47
2023-01-23T15:37:06.760Z,102441.61
2023-01-23T15:39:38.776Z,102445.01
2023-01-23T15:42:23.230Z,102444.41
2023-01-23T15:44:55.979Z,102447.83
2023-01-23T15:47:26.779Z,102448.92
2023-01-23T15:50:01.611Z,102445.88
2023-01-23T15:52:38.334Z,102449.56
2023-01-23T15:55:11.378Z,102447.44
2023-01-23T15:57:43.380Z,102447.82
2023-01-23T16:00:18.417Z,102448.55
2023-01-23T16:02:56.797Z,102451.89
2023-01-23T16:05:29.127Z,102455.65
2023-01-23T16:08:01.320Z,102456.25
2023-01-23T16:10:33.144Z,102460.89
2023-01-23T16:13:04.210Z,102463.34
2023-01-23T16:15:35.608Z,102462.47
2023-01-23T16:18:06.681Z,102462.30
2023-01-23T16:20:40.460Z,102463.90
2023-01-23T16:23:15.602Z,102462.30
2023-01-23T16:25:46.929Z,102461.61
2023-01-23T16:28:19.569Z,102463.92
2023-01-23T16:30:51.880Z,102465.24
2023-01-23T16:33:22.932Z,102473.38
2023-01-23T16:35:55.509Z,102472.60
2023-01-23T16:38:27.902Z,102469.18
2023-01-23T16:40:59.829Z,102470.27
2023-01-23T16:43:30.842Z,102472.59
2023-01-23T16:46:02.552Z,102478.38
2023-01-23T16:48:33.673Z,102480.45
2023-01-23T16:51:04.958Z,102477.38
2023-01-23T16:53:36.556Z,102479.00
2023-01-23T16:56:08.034Z,102481.05
2023-01-23T16:58:40.539Z,102485.67
2023-01-23T17:01:13.718Z,102484.92
2023-01-23T17:03:46.864Z,102488.63
2023-01-23T17:06:18.003Z,102492.21
2023-01-23T17:08:50.294Z,102489.95
2023-01-23T17:11:22.190Z,102477.58
2023-01-23T17:13:54.539Z,102478.39
2023-01-23T17:16:27.929Z,102477.77
2023-01-23T17:19:00.681Z,102478.16
2023-01-23T17:21:32.635Z,102476.40
2023-01-23T17:24:05.171Z,102470.23
2023-01-23T17:26:36.454Z,102465.22
2023-01-23T17:29:07.599Z,102466.73
2023-01-23T17:31:38.544Z,102463.02
2023-01-23T17:34:11.138Z,102467.05
2023-01-23T17:36:41.922Z,102469.52
2023-01-23T17:39:13.087Z,102478.80
2023-01-23T17:41:43.991Z,102489.40
2023-01-23T17:44:15.324Z,102491.89
2023-01-23T17:46:46.407Z,102491.35
2023-01-23T17:49:26.067Z,102490.23
2023-01-23T17:51:56.869Z,102494.05
2023-01-23T17:54:28.517Z,102493.95
2023-01-23T17:56:59.370Z,102499.85
2023-01-23T17:59:30.140Z,102501.93
2023-01-23T18:02:01.001Z,102501.29
2023-01-23T18:04:32.151Z,102498.25
2023-01-23T18:07:03.883Z,102500.48
2023-01-23T18:09:34.806Z,102498.60
2023-01-23T18:12:07.904Z,102495.34
2023-01-23T18:14:43.840Z,102497.27
2023-01-23T18:17:20.828Z,102499.10
2023-01-23T18:19:54.142Z,102496.32
2023-01-23T18:22:25.603Z,102494.17
2023-01-23T18:24:59.919Z,102493.18
2023-01-23T18:27:30.854Z,102491.90
2023-01-23T18:30:11.564Z,102486.02
2023-01-23T18:33:00.331Z,102489.38
2023-01-23T18:35:33.818Z,102490.83
2023-01-23T18:38:07.570Z,102490.38
2023-01-23T18:40:40.247Z,102494.42
2023-01-23T18:43:16.353Z,102497.91
2023-01-23T18:45:48.265Z,102504.45
2023-01-23T18:48:25.775Z,102505.31
2023-01-23T18:51:02.126Z,102501.63
2023-01-23T18:53:37.117Z,102500.23
2023-01-23T18:56:10.367Z,102506.02
2023-01-23T18:58:44.415Z,102506.90
2023-01-23T19:01:16.591Z,102508.83
2023-01-23T19:03:47.800Z,102510.16
2023-01-23T19:06:20.160Z,102515.07
2023-01-23T19:08:51.568Z,102512.70
2023-01-23T19:11:25.821Z,102512.41
2023-01-23T19:13:59.874Z,102509.10
2023-01-23T19:16:32.025Z,102511.75
2023-01-23T19:19:15.289Z,102521.27
2023-01-23T19:21:47.569Z,102527.64
2023-01-23T19:24:19.816Z,102529.41
2023-01-23T19:26:51.718Z,102532.96
2023-01-23T19:29:23.402Z,102537.47
2023-01-23T19:32:04.638Z,102539.83
2023-01-23T19:34:39.037Z,102544.84
2023-01-23T19:37:14.799Z,102546.02
2023-01-23T19:39:46.097Z,102542.88
2023-01-23T19:42:19.820Z,102544.73
2023-01-23T19:44:59.291Z,102547.69
2023-01-23T19:47:32.445Z,102548.95
2023-01-23T19:50:03.895Z,102554.20
2023-01-23T19:52:34.834Z,102552.41
2023-01-23T19:55:05.964Z,102557.26
2023-01-23T19:57:36.978Z,102559.25
2023-01-23T20:00:09.974Z,102563.44
2023-01-23T20:02:40.842Z,102568.02
2023-01-23T20:05:12.126Z,102567.83
2023-01-23T20:07:43.030Z,102568.43
2023-01-23T20:10:14.515Z,102564.67
2023-01-23T20:12:46.639Z,102562.28
2023-01-23T20:15:17.569Z,102561.73
2023-01-23T20:17:48.321Z,102564.31
2023-01-23T20:20:19.670Z,102569.27
2023-01-23T20:22:50.655Z,102570.30
2023-01-23T20:25:21.914Z,102567.96
2023-01-23T20:27:53.501Z,102564.45
2023-01-23T20:30:24.819Z,102561.76
2023-01-23T20:35:31.702Z,102564.25
2023-01-23T20:38:02.669Z,102560.88
2023-01-23T20:40:33.699Z,102560.54
2023-01-23T20:43:04.582Z,102558.59
2023-01-23T20:45:35.902Z,102559.97
2023-01-23T20:48:07.398Z,102564.09
2023-01-23T20:50:39.471Z,102572.05
2023-01-23T20:53:28.163Z,102575.46
2023-01-23T20:55:59.768Z,102584.97
2023-01-23T20:58:48.247Z,102582.13
2023-01-23T21:01:19.505Z,102584.36
2023-01-23T21:03:50.581Z,102581.60
2023-01-23T21:06:21.299Z,102579.43
2023-01-23T21:08:52.098Z,102585.87
2023-01-23T21:11:24.145Z,102587.80
2023-01-23T21:13:55.040Z,102588.70
2023-01-23T21:16:27.487Z,102592.08
2023-01-23T21:18:58.282Z,102594.24
2023-01-23T21:21:29.161Z,102593.86
2023-01-23T21:23:59.976Z,102596.33
2023-01-23T21:26:31.363Z,102596.48
2023-01-23T21:29:02.324Z,102591.14
2023-01-23T21:31:34.031Z,102588.26
2023-01-23T21:34:05.486Z,102588.44
2023-01-23T21:36:36.227Z,102591.12
2023-01-23T21:39:09.432Z,102589.23
2023-01-23T21:41:41.156Z,102588.00
2023-01-23T21:44:12.192Z,102586.34
2023-01-23T21:46:43.067Z,102587.25
2023-01-23T21:49:13.894Z,102586.61
2023-01-23T21:51:45.160Z,102580.86
2023-01-23T21:54:15.964Z,102578.77
2023-01-23T21:56:46.781Z,102572.20
2023-01-23T21:59:17.680Z,102570.78
2023-01-23T22:01:48.488Z,102573.98
2023-01-23T22:04:22.664Z,102571.68
2023-01-23T22:06:55.447Z,102578.05
2023-01-23T22:09:27.139Z,102578.60
2023-01-23T22:11:57.883Z,102577.77
2023-01-23T22:14:28.716Z,102581.07
2023-01-23T22:16:59.580Z,102582.65
2023-01-23T22:19:30.373Z,102575.83
2023-01-23T22:22:01.235Z,102579.61
2023-01-23T22:24:32.079Z,102576.98
2023-01-23T22:27:04.166Z,102574.91
2023-01-23T22:29:35.109Z,102578.95
2023-01-23T22:32:06.082Z,102582.94
2023-01-23T22:34:37.318Z,102589.21
2023-01-23T22:37:08.048Z,102593.88
2023-01-23T22:39:38.833Z,102592.58
2023-01-23T22:42:09.580Z,102585.71
2023-01-23T22:44:40.534Z,102583.39
2023-01-23T22:47:11.380Z,102581.16
2023-01-23T22:49:44.236Z,102583.54
2023-01-23T22:52:15.120Z,102588.80
2023-01-23T22:54:45.924Z,102589.56
2023-01-23T22:57:16.579Z,102588.11
2023-01-23T22:59:48.521Z,102589.05
2023-01-23T23:02:20.335Z,102588.20
2023-01-23T23:04:51.906Z,102587.10
2023-01-23T23:07:22.722Z,102586.64
2023-01-23T23:09:53.543Z,102588.64
2023-01-23T23:12:24.367Z,102590.77
2023-01-23T23:14:55.227Z,102588.29
2023-01-23T23:17:27.076Z,102581.38
2023-01-23T23:19:58.025Z,102583.27
2023-01-23T23:22:28.939Z,102582.30
2023-01-23T23:24:59.832Z,102584.91
2023-01-23T23:27:30.546Z,102584.08
2023-01-23T23:30:01.364Z,102582.37
2023-01-23T23:32:32.241Z,102579.30
2023-01-23T23:35:03.234Z,102580.96
2023-01-23T23:37:33.920Z,102576.11
2023-01-23T23:40:04.769Z,102573.44
2023-01-23T23:42:35.706Z,102571.87
2023-01-23T23:45:08.734Z,102573.67
2023-01-23T23:47:39.491Z,102579.84
2023-01-23T23:50:11.842Z,102585.95
2023-01-23T23:52:42.690Z,102589.88
2023-01-23T23:55:13.601Z,102588.90
2023-01-23T23:57:44.365Z,102588.17
